sensor_id;sensor_type;location;lat;lon;timestamp;pressure;altitude;pressure_sealevel;temperature;humidity
54806;BME280;62866;55.776;37.496;2023-04-16T00:01:27;101371.69;;;4.37;33.10
54806;BME280;62866;55.776;37.496;2023-04-16T00:03:53;101378.78;;;4.36;33.88
54806;BME280;62866;55.776;37.496;2023-04-16T00:06:19;101388.66;;;4.34;33.37
54806;BME280;62866;55.776;37.496;2023-04-16T00:08:44;101393.81;;;4.36;33.69
54806;BME280;62866;55.776;37.496;2023-04-16T00:11:10;101399.34;;;4.33;33.66
54806;BME280;62866;55.776;37.496;2023-04-16T00:13:36;101398.16;;;4.37;33.62
54806;BME280;62866;55.776;37.496;2023-04-16T00:16:01;101394.56;;;4.38;33.44
54806;BME280;62866;55.776;37.496;2023-04-16T00:18:27;101396.72;;;4.33;33.55
54806;BME280;62866;55.776;37.496;2023-04-16T00:20:52;101380.00;;;4.19;33.86
54806;BME280;62866;55.776;37.496;2023-04-16T00:23:19;101396.63;;;4.22;34.01
54806;BME280;62866;55.776;37.496;2023-04-16T00:25:45;101394.31;;;4.17;34.30
54806;BME280;62866;55.776;37.496;2023-04-16T00:28:11;101388.28;;;4.15;34.37
54806;BME280;62866;55.776;37.496;2023-04-16T00:30:36;101385.13;;;4.10;34.42
54806;BME280;62866;55.776;37.496;2023-04-16T00:33:02;101391.47;;;4.07;34.48
54806;BME280;62866;55.776;37.496;2023-04-16T00:35:29;101399.59;;;4.04;34.65
54806;BME280;62866;55.776;37.496;2023-04-16T00:37:54;101400.56;;;4.03;34.45
54806;BME280;62866;55.776;37.496;2023-04-16T00:40:20;101398.84;;;4.02;34.56
54806;BME280;62866;55.776;37.496;2023-04-16T00:42:46;101405.53;;;3.95;35.03
54806;BME280;62866;55.776;37.496;2023-04-16T00:45:11;101403.44;;;4.00;34.92
54806;BME280;62866;55.776;37.496;2023-04-16T00:47:37;101405.34;;;3.98;34.96
54806;BME280;62866;55.776;37.496;2023-04-16T00:50:03;101400.69;;;3.89;34.71
54806;BME280;62866;55.776;37.496;2023-04-16T00:52:30;101403.22;;;3.91;35.30
54806;BME280;62866;55.776;37.496;2023-04-16T00:54:57;101397.94;;;3.91;35.70
54806;BME280;62866;55.776;37.496;2023-04-16T00:57:23;101375.28;;;3.74;35.64
54806;BME280;62866;55.776;37.496;2023-04-16T00:59:49;101394.63;;;3.87;35.16
54806;BME280;62866;55.776;37.496;2023-04-16T01:02:15;101388.84;;;3.82;35.21
54806;BME280;62866;55.776;37.496;2023-04-16T01:04:41;101386.19;;;3.82;35.32
54806;BME280;62866;55.776;37.496;2023-04-16T01:07:07;101386.81;;;3.86;35.51
54806;BME280;62866;55.776;37.496;2023-04-16T01:09:32;101381.84;;;3.81;35.57
54806;BME280;62866;55.776;37.496;2023-04-16T01:11:58;101388.84;;;3.82;35.67
54806;BME280;62866;55.776;37.496;2023-04-16T01:14:23;101390.53;;;3.83;35.79
54806;BME280;62866;55.776;37.496;2023-04-16T01:16:49;101385.03;;;3.73;35.62
54806;BME280;62866;55.776;37.496;2023-04-16T01:19:14;101385.63;;;3.77;35.73
54806;BME280;62866;55.776;37.496;2023-04-16T01:21:40;101385.88;;;3.74;35.86
54806;BME280;62866;55.776;37.496;2023-04-16T01:24:06;101389.56;;;3.71;35.70
54806;BME280;62866;55.776;37.496;2023-04-16T01:26:31;101387.13;;;3.68;36.11
54806;BME280;62866;55.776;37.496;2023-04-16T01:28:58;101389.03;;;3.66;35.46
54806;BME280;62866;55.776;37.496;2023-04-16T01:31:24;101387.97;;;3.69;36.00
54806;BME280;62866;55.776;37.496;2023-04-16T01:33:49;101385.13;;;3.72;35.88
54806;BME280;62866;55.776;37.496;2023-04-16T01:36:15;101393.72;;;3.75;35.83
54806;BME280;62866;55.776;37.496;2023-04-16T01:38:41;101382.19;;;3.76;35.98
54806;BME280;62866;55.776;37.496;2023-04-16T01:41:06;101379.63;;;3.75;35.41
54806;BME280;62866;55.776;37.496;2023-04-16T01:43:32;101387.56;;;3.75;36.06
54806;BME280;62866;55.776;37.496;2023-04-16T01:48:36;101379.84;;;3.72;36.30
54806;BME280;62866;55.776;37.496;2023-04-16T01:51:01;101377.09;;;3.73;36.05
54806;BME280;62866;55.776;37.496;2023-04-16T01:53:29;101383.22;;;3.74;36.09
54806;BME280;62866;55.776;37.496;2023-04-16T01:55:54;101382.78;;;3.80;35.74
54806;BME280;62866;55.776;37.496;2023-04-16T01:58:20;101386.28;;;3.80;35.96
54806;BME280;62866;55.776;37.496;2023-04-16T02:00:45;101388.09;;;3.80;35.64
54806;BME280;62866;55.776;37.496;2023-04-16T02:03:11;101393.19;;;3.83;36.05
54806;BME280;62866;55.776;37.496;2023-04-16T02:05:36;101387.66;;;3.86;35.66
54806;BME280;62866;55.776;37.496;2023-04-16T02:08:02;101389.56;;;3.84;35.70
54806;BME280;62866;55.776;37.496;2023-04-16T02:10:28;101390.28;;;3.86;35.87
54806;BME280;62866;55.776;37.496;2023-04-16T02:12:53;101394.53;;;3.89;35.76
54806;BME280;62866;55.776;37.496;2023-04-16T02:15:19;101395.38;;;3.89;35.73
54806;BME280;62866;55.776;37.496;2023-04-16T02:17:44;101396.44;;;3.87;35.77
54806;BME280;62866;55.776;37.496;2023-04-16T02:20:11;101392.00;;;3.87;35.47
54806;BME280;62866;55.776;37.496;2023-04-16T02:22:36;101397.28;;;3.87;35.74
54806;BME280;62866;55.776;37.496;2023-04-16T02:25:02;101388.09;;;3.93;35.26
54806;BME280;62866;55.776;37.496;2023-04-16T02:27:27;101395.81;;;3.96;35.62
54806;BME280;62866;55.776;37.496;2023-04-16T02:29:53;101399.09;;;3.87;35.17
54806;BME280;62866;55.776;37.496;2023-04-16T02:32:19;101387.97;;;3.81;35.87
54806;BME280;62866;55.776;37.496;2023-04-16T02:34:44;101388.94;;;3.80;35.78
54806;BME280;62866;55.776;37.496;2023-04-16T02:37:10;101389.03;;;3.79;35.76
54806;BME280;62866;55.776;37.496;2023-04-16T02:39:36;101384.91;;;3.75;35.96
54806;BME280;62866;55.776;37.496;2023-04-16T02:42:01;101386.38;;;3.79;36.24
54806;BME280;62866;55.776;37.496;2023-04-16T02:44:27;101391.69;;;3.79;35.97
54806;BME280;62866;55.776;37.496;2023-04-16T02:46:52;101390.72;;;3.80;36.40
54806;BME280;62866;55.776;37.496;2023-04-16T02:49:18;101385.22;;;3.70;36.29
54806;BME280;62866;55.776;37.496;2023-04-16T02:51:43;101395.16;;;3.79;36.28
54806;BME280;62866;55.776;37.496;2023-04-16T02:54:09;101387.34;;;3.78;36.30
54806;BME280;62866;55.776;37.496;2023-04-16T02:56:34;101401.22;;;3.81;36.42
54806;BME280;62866;55.776;37.496;2023-04-16T02:59:00;101399.50;;;3.80;36.42
54806;BME280;62866;55.776;37.496;2023-04-16T03:01:25;101400.38;;;3.81;36.48
54806;BME280;62866;55.776;37.496;2023-04-16T03:03:52;101405.66;;;3.81;36.66
54806;BME280;62866;55.776;37.496;2023-04-16T03:06:18;101410.09;;;3.80;36.46
54806;BME280;62866;55.776;37.496;2023-04-16T03:08:43;101400.16;;;3.84;36.41
54806;BME280;62866;55.776;37.496;2023-04-16T03:11:09;101413.41;;;3.84;36.72
54806;BME280;62866;55.776;37.496;2023-04-16T03:13:34;101406.59;;;3.80;36.86
54806;BME280;62866;55.776;37.496;2023-04-16T03:16:00;101408.09;;;3.84;36.34
54806;BME280;62866;55.776;37.496;2023-04-16T03:18:26;101415.06;;;3.85;36.64
54806;BME280;62866;55.776;37.496;2023-04-16T03:20:52;101408.09;;;3.84;36.44
54806;BME280;62866;55.776;37.496;2023-04-16T03:23:18;101415.81;;;3.87;36.54
54806;BME280;62866;55.776;37.496;2023-04-16T03:25:43;101410.22;;;3.92;36.73
54806;BME280;62866;55.776;37.496;2023-04-16T03:28:12;101378.78;;;3.74;36.57
54806;BME280;62866;55.776;37.496;2023-04-16T03:30:38;101412.44;;;3.98;36.99
54806;BME280;62866;55.776;37.496;2023-04-16T03:33:04;101378.16;;;3.84;36.46
54806;BME280;62866;55.776;37.496;2023-04-16T03:35:29;101403.84;;;4.07;36.41
54806;BME280;62866;55.776;37.496;2023-04-16T03:37:55;101413.03;;;4.14;36.62
54806;BME280;62866;55.776;37.496;2023-04-16T03:40:21;101405.75;;;4.17;36.33
54806;BME280;62866;55.776;37.496;2023-04-16T03:42:46;101402.75;;;4.22;36.37
54806;BME280;62866;55.776;37.496;2023-04-16T03:45:12;101401.72;;;4.25;36.52
54806;BME280;62866;55.776;37.496;2023-04-16T03:47:37;101411.41;;;4.37;36.22
54806;BME280;62866;55.776;37.496;2023-04-16T03:50:03;101413.00;;;4.39;36.10
54806;BME280;62866;55.776;37.496;2023-04-16T03:52:29;101410.56;;;4.49;36.25
54806;BME280;62866;55.776;37.496;2023-04-16T03:54:54;101389.69;;;4.44;35.64
54806;BME280;62866;55.776;37.496;2023-04-16T03:57:20;101408.59;;;4.64;35.56
54806;BME280;62866;55.776;37.496;2023-04-16T03:59:45;101407.28;;;4.69;35.35
54806;BME280;62866;55.776;37.496;2023-04-16T04:02:11;101413.06;;;4.87;35.92
54806;BME280;62866;55.776;37.496;2023-04-16T04:04:36;101416.94;;;4.94;35.11
54806;BME280;62866;55.776;37.496;2023-04-16T04:07:02;101398.75;;;4.89;34.76
54806;BME280;62866;55.776;37.496;2023-04-16T04:09:27;101406.19;;;5.08;35.01
54806;BME280;62866;55.776;37.496;2023-04-16T04:11:53;101410.69;;;5.19;34.42
54806;BME280;62866;55.776;37.496;2023-04-16T04:14:19;101410.50;;;5.33;34.73
54806;BME280;62866;55.776;37.496;2023-04-16T04:16:44;101409.81;;;5.42;34.49
54806;BME280;62866;55.776;37.496;2023-04-16T04:19:10;101407.81;;;5.57;34.47
54806;BME280;62866;55.776;37.496;2023-04-16T04:21:35;101409.91;;;5.76;34.18
54806;BME280;62866;55.776;37.496;2023-04-16T04:24:01;101396.91;;;5.95;33.91
54806;BME280;62866;55.776;37.496;2023-04-16T04:26:27;101408.16;;;6.09;33.50
54806;BME280;62866;55.776;37.496;2023-04-16T04:28:52;101398.34;;;6.21;32.77
54806;BME280;62866;55.776;37.496;2023-04-16T04:31:18;101395.34;;;6.26;32.41
54806;BME280;62866;55.776;37.496;2023-04-16T04:33:43;101394.13;;;6.30;32.21
54806;BME280;62866;55.776;37.496;2023-04-16T04:36:09;101396.91;;;6.39;32.20
54806;BME280;62866;55.776;37.496;2023-04-16T04:38:34;101402.09;;;6.52;32.06
54806;BME280;62866;55.776;37.496;2023-04-16T04:41:00;101402.78;;;6.65;32.12
54806;BME280;62866;55.776;37.496;2023-04-16T04:43:26;101403.13;;;6.72;31.56
54806;BME280;62866;55.776;37.496;2023-04-16T04:45:51;101407.19;;;6.87;31.61
54806;BME280;62866;55.776;37.496;2023-04-16T04:48:17;101398.47;;;6.96;31.79
54806;BME280;62866;55.776;37.496;2023-04-16T04:50:44;101413.41;;;7.19;31.45
54806;BME280;62866;55.776;37.496;2023-04-16T04:53:10;101396.84;;;7.37;31.46
54806;BME280;62866;55.776;37.496;2023-04-16T04:55:36;101398.28;;;7.41;30.67
54806;BME280;62866;55.776;37.496;2023-04-16T04:58:06;101398.59;;;7.47;30.74
54806;BME280;62866;55.776;37.496;2023-04-16T05:00:33;101405.16;;;7.64;30.41
54806;BME280;62866;55.776;37.496;2023-04-16T05:03:01;101400.09;;;7.82;30.97
54806;BME280;62866;55.776;37.496;2023-04-16T05:05:27;101405.59;;;8.11;29.90
54806;BME280;62866;55.776;37.496;2023-04-16T05:07:53;101409.16;;;8.30;29.45
54806;BME280;62866;55.776;37.496;2023-04-16T05:10:18;101404.66;;;8.52;29.47
54806;BME280;62866;55.776;37.496;2023-04-16T05:12:45;101400.19;;;8.71;29.54
54806;BME280;62866;55.776;37.496;2023-04-16T05:15:11;101395.31;;;8.96;28.85
54806;BME280;62866;55.776;37.496;2023-04-16T05:17:37;101399.25;;;9.21;29.29
54806;BME280;62866;55.776;37.496;2023-04-16T05:20:03;101403.47;;;9.23;28.04
54806;BME280;62866;55.776;37.496;2023-04-16T05:22:28;101402.50;;;9.34;27.99
54806;BME280;62866;55.776;37.496;2023-04-16T05:24:54;101402.75;;;10.16;26.90
54806;BME280;62866;55.776;37.496;2023-04-16T05:27:19;101385.94;;;11.67;25.37
54806;BME280;62866;55.776;37.496;2023-04-16T05:29:45;101397.22;;;13.55;24.44
54806;BME280;62866;55.776;37.496;2023-04-16T05:32:10;101390.94;;;15.35;22.81
54806;BME280;62866;55.776;37.496;2023-04-16T05:34:36;101400.44;;;16.64;22.36
54806;BME280;62866;55.776;37.496;2023-04-16T05:37:01;101383.78;;;17.39;21.54
54806;BME280;62866;55.776;37.496;2023-04-16T05:39:27;101383.03;;;18.01;21.38
54806;BME280;62866;55.776;37.496;2023-04-16T05:41:52;101393.81;;;17.95;22.03
54806;BME280;62866;55.776;37.496;2023-04-16T05:44:18;101390.75;;;18.86;21.48
54806;BME280;62866;55.776;37.496;2023-04-16T05:46:43;101380.03;;;19.98;20.25
54806;BME280;62866;55.776;37.496;2023-04-16T05:49:09;101394.41;;;21.21;19.20
54806;BME280;62866;55.776;37.496;2023-04-16T05:51:35;101374.25;;;21.78;17.84
54806;BME280;62866;55.776;37.496;2023-04-16T05:54:01;101372.03;;;21.19;18.31
54806;BME280;62866;55.776;37.496;2023-04-16T05:56:26;101375.91;;;20.98;18.21
54806;BME280;62866;55.776;37.496;2023-04-16T05:58:52;101361.38;;;20.79;16.96
54806;BME280;62866;55.776;37.496;2023-04-16T06:01:17;101378.53;;;20.16;17.26
54806;BME280;62866;55.776;37.496;2023-04-16T06:03:43;101370.47;;;18.63;18.47
54806;BME280;62866;55.776;37.496;2023-04-16T06:06:09;101370.28;;;18.71;18.69
54806;BME280;62866;55.776;37.496;2023-04-16T06:08:35;101366.66;;;19.44;18.67
54806;BME280;62866;55.776;37.496;2023-04-16T06:11:00;101369.69;;;20.27;17.95
54806;BME280;62866;55.776;37.496;2023-04-16T06:13:26;101365.41;;;21.40;16.97
54806;BME280;62866;55.776;37.496;2023-04-16T06:15:52;101367.44;;;22.67;16.40
54806;BME280;62866;55.776;37.496;2023-04-16T06:18:17;101372.16;;;22.42;16.21
54806;BME280;62866;55.776;37.496;2023-04-16T06:20:43;101369.13;;;22.13;16.36
54806;BME280;62866;55.776;37.496;2023-04-16T06:23:08;101365.88;;;21.30;16.61
54806;BME280;62866;55.776;37.496;2023-04-16T06:25:34;101369.63;;;19.56;17.83
54806;BME280;62866;55.776;37.496;2023-04-16T06:27:59;101368.72;;;18.48;18.69
54806;BME280;62866;55.776;37.496;2023-04-16T06:30:25;101377.09;;;18.60;18.58
54806;BME280;62866;55.776;37.496;2023-04-16T06:32:51;101359.53;;;19.04;18.53
54806;BME280;62866;55.776;37.496;2023-04-16T06:35:17;101358.97;;;19.74;17.88
54806;BME280;62866;55.776;37.496;2023-04-16T06:37:44;101368.03;;;20.32;17.87
54806;BME280;62866;55.776;37.496;2023-04-16T06:40:10;101355.69;;;20.43;17.40
54806;BME280;62866;55.776;37.496;2023-04-16T06:42:36;101368.41;;;18.78;17.80
54806;BME280;62866;55.776;37.496;2023-04-16T06:45:02;101360.41;;;16.89;18.88
54806;BME280;62866;55.776;37.496;2023-04-16T06:47:27;101358.97;;;15.69;19.97
54806;BME280;62866;55.776;37.496;2023-04-16T06:49:53;101359.22;;;15.97;20.20
54806;BME280;62866;55.776;37.496;2023-04-16T06:52:18;101353.16;;;16.90;19.60
54806;BME280;62866;55.776;37.496;2023-04-16T06:54:44;101342.81;;;17.64;19.21
54806;BME280;62866;55.776;37.496;2023-04-16T06:57:09;101354.16;;;18.56;18.58
54806;BME280;62866;55.776;37.496;2023-04-16T06:59:35;101340.13;;;18.39;18.20
54806;BME280;62866;55.776;37.496;2023-04-16T07:02:01;101353.22;;;17.67;18.27
54806;BME280;62866;55.776;37.496;2023-04-16T07:04:26;101362.94;;;16.76;19.16
54806;BME280;62866;55.776;37.496;2023-04-16T07:06:52;101345.59;;;15.76;19.31
54806;BME280;62866;55.776;37.496;2023-04-16T07:09:17;101352.44;;;15.26;19.91
54806;BME280;62866;55.776;37.496;2023-04-16T07:11:43;101359.63;;;14.88;20.18
54806;BME280;62866;55.776;37.496;2023-04-16T07:14:09;101347.34;;;14.86;20.34
54806;BME280;62866;55.776;37.496;2023-04-16T07:16:34;101354.59;;;15.53;20.35
54806;BME280;62866;55.776;37.496;2023-04-16T07:19:02;101351.66;;;16.37;19.65
54806;BME280;62866;55.776;37.496;2023-04-16T07:21:27;101340.44;;;16.69;19.67
54806;BME280;62866;55.776;37.496;2023-04-16T07:23:53;101352.25;;;17.04;19.51
54806;BME280;62866;55.776;37.496;2023-04-16T07:26:18;101361.13;;;16.62;19.81
54806;BME280;62866;55.776;37.496;2023-04-16T07:28:44;101361.16;;;16.18;19.76
54806;BME280;62866;55.776;37.496;2023-04-16T07:31:09;101359.09;;;15.76;20.28
54806;BME280;62866;55.776;37.496;2023-04-16T07:33:35;101344.59;;;15.39;20.37
54806;BME280;62866;55.776;37.496;2023-04-16T07:36:01;101362.38;;;15.03;20.43
54806;BME280;62866;55.776;37.496;2023-04-16T07:38:26;101359.53;;;14.73;20.12
54806;BME280;62866;55.776;37.496;2023-04-16T07:40:52;101361.25;;;14.97;19.97
54806;BME280;62866;55.776;37.496;2023-04-16T07:43:17;101353.31;;;16.08;19.87
54806;BME280;62866;55.776;37.496;2023-04-16T07:45:43;101361.69;;;16.93;18.94
54806;BME280;62866;55.776;37.496;2023-04-16T07:48:08;101343.94;;;17.76;18.10
54806;BME280;62866;55.776;37.496;2023-04-16T07:50:35;101343.03;;;17.97;18.12
54806;BME280;62866;55.776;37.496;2023-04-16T07:53:00;101341.53;;;18.29;18.18
54806;BME280;62866;55.776;37.496;2023-04-16T07:55:26;101341.97;;;18.80;18.11
54806;BME280;62866;55.776;37.496;2023-04-16T07:57:51;101337.78;;;18.77;18.10
54806;BME280;62866;55.776;37.496;2023-04-16T08:00:17;101337.31;;;18.61;18.29
54806;BME280;62866;55.776;37.496;2023-04-16T08:02:43;101335.91;;;18.84;18.26
54806;BME280;62866;55.776;37.496;2023-04-16T08:05:08;101331.38;;;18.98;17.85
54806;BME280;62866;55.776;37.496;2023-04-16T08:07:35;101333.13;;;17.82;17.47
54806;BME280;62866;55.776;37.496;2023-04-16T08:10:00;101330.63;;;17.04;18.25
54806;BME280;62866;55.776;37.496;2023-04-16T08:12:26;101315.66;;;16.65;18.16
54806;BME280;62866;55.776;37.496;2023-04-16T08:14:53;101331.72;;;16.88;18.38
54806;BME280;62866;55.776;37.496;2023-04-16T08:17:18;101314.84;;;17.07;18.17
54806;BME280;62866;55.776;37.496;2023-04-16T08:19:44;101309.56;;;16.78;18.69
54806;BME280;62866;55.776;37.496;2023-04-16T08:22:13;101321.88;;;17.02;18.07
54806;BME280;62866;55.776;37.496;2023-04-16T08:24:38;101314.03;;;17.07;18.15
54806;BME280;62866;55.776;37.496;2023-04-16T08:27:04;101315.34;;;17.67;17.79
54806;BME280;62866;55.776;37.496;2023-04-16T08:29:30;101319.31;;;19.66;16.78
54806;BME280;62866;55.776;37.496;2023-04-16T08:31:56;101306.31;;;20.91;15.90
54806;BME280;62866;55.776;37.496;2023-04-16T08:34:21;101287.44;;;21.70;15.73
54806;BME280;62866;55.776;37.496;2023-04-16T08:36:47;101304.03;;;22.71;15.48
54806;BME280;62866;55.776;37.496;2023-04-16T08:39:12;101295.00;;;22.71;15.15
54806;BME280;62866;55.776;37.496;2023-04-16T08:41:42;101290.56;;;21.92;15.17
54806;BME280;62866;55.776;37.496;2023-04-16T08:44:12;101289.78;;;21.67;15.57
54806;BME280;62866;55.776;37.496;2023-04-16T08:46:40;101291.72;;;21.59;15.10
54806;BME280;62866;55.776;37.496;2023-04-16T08:49:06;101283.91;;;21.88;14.82
54806;BME280;62866;55.776;37.496;2023-04-16T08:51:35;101279.84;;;21.54;14.44
54806;BME280;62866;55.776;37.496;2023-04-16T08:54:04;101276.63;;;20.89;15.38
54806;BME280;62866;55.776;37.496;2023-04-16T08:56:35;101256.81;;;21.07;15.16
54806;BME280;62866;55.776;37.496;2023-04-16T08:59:01;101275.25;;;20.35;14.88
54806;BME280;62866;55.776;37.496;2023-04-16T09:01:31;101275.63;;;19.88;15.10
54806;BME280;62866;55.776;37.496;2023-04-16T09:03:58;101272.97;;;19.61;15.37
54806;BME280;62866;55.776;37.496;2023-04-16T09:06:26;101275.25;;;19.45;15.19
54806;BME280;62866;55.776;37.496;2023-04-16T09:08:53;101274.03;;;19.01;15.31
54806;BME280;62866;55.776;37.496;2023-04-16T09:11:19;101274.31;;;18.52;15.68
54806;BME280;62866;55.776;37.496;2023-04-16T09:13:45;101257.31;;;18.10;15.86
54806;BME280;62866;55.776;37.496;2023-04-16T09:16:12;101265.69;;;17.19;16.26
54806;BME280;62866;55.776;37.496;2023-04-16T09:18:37;101259.38;;;16.48;16.66
54806;BME280;62866;55.776;37.496;2023-04-16T09:21:04;101271.56;;;15.93;16.92
54806;BME280;62866;55.776;37.496;2023-04-16T09:23:32;101266.88;;;15.28;17.44
54806;BME280;62866;55.776;37.496;2023-04-16T09:25:58;101261.28;;;14.92;17.69
54806;BME280;62866;55.776;37.496;2023-04-16T09:31:16;101257.72;;;14.54;18.50
54806;BME280;62866;55.776;37.496;2023-04-16T09:33:45;101279.81;;;14.33;18.30
54806;BME280;62866;55.776;37.496;2023-04-16T09:36:25;101279.47;;;14.05;18.92
54806;BME280;62866;55.776;37.496;2023-04-16T09:38:53;101279.44;;;14.14;18.87
54806;BME280;62866;55.776;37.496;2023-04-16T09:41:19;101283.09;;;14.21;18.54
54806;BME280;62866;55.776;37.496;2023-04-16T09:46:20;101270.03;;;14.71;18.47
54806;BME280;62866;55.776;37.496;2023-04-16T09:48:46;101266.13;;;14.74;18.80
54806;BME280;62866;55.776;37.496;2023-04-16T09:51:12;101264.59;;;14.79;18.98
54806;BME280;62866;55.776;37.496;2023-04-16T09:53:37;101258.47;;;14.86;18.64
54806;BME280;62866;55.776;37.496;2023-04-16T09:56:05;101262.47;;;14.90;18.55
54806;BME280;62866;55.776;37.496;2023-04-16T09:58:31;101259.06;;;14.50;18.54
54806;BME280;62866;55.776;37.496;2023-04-16T10:01:10;101254.59;;;14.34;19.03
54806;BME280;62866;55.776;37.496;2023-04-16T10:03:37;101254.94;;;14.31;19.32
54806;BME280;62866;55.776;37.496;2023-04-16T10:06:16;101251.56;;;14.37;19.29
54806;BME280;62866;55.776;37.496;2023-04-16T10:11:14;101246.22;;;14.83;19.47
54806;BME280;62866;55.776;37.496;2023-04-16T10:13:40;101244.28;;;14.92;19.46
54806;BME280;62866;55.776;37.496;2023-04-16T10:16:07;101239.78;;;15.07;19.30
54806;BME280;62866;55.776;37.496;2023-04-16T10:18:37;101239.63;;;14.86;18.95
54806;BME280;62866;55.776;37.496;2023-04-16T10:21:04;101241.34;;;14.64;19.01
54806;BME280;62866;55.776;37.496;2023-04-16T10:23:31;101241.66;;;14.38;19.19
54806;BME280;62866;55.776;37.496;2023-04-16T10:25:58;101239.00;;;14.30;19.28
54806;BME280;62866;55.776;37.496;2023-04-16T10:28:24;101239.97;;;14.37;19.54
54806;BME280;62866;55.776;37.496;2023-04-16T10:30:50;101227.97;;;14.70;19.75
54806;BME280;62866;55.776;37.496;2023-04-16T10:33:26;101234.09;;;15.02;19.38
54806;BME280;62866;55.776;37.496;2023-04-16T10:36:05;101234.78;;;15.18;19.18
54806;BME280;62866;55.776;37.496;2023-04-16T10:38:32;101221.13;;;15.20;18.73
54806;BME280;62866;55.776;37.496;2023-04-16T10:41:05;101226.03;;;15.02;19.04
54806;BME280;62866;55.776;37.496;2023-04-16T10:43:32;101205.38;;;14.79;19.16
54806;BME280;62866;55.776;37.496;2023-04-16T10:46:20;101236.94;;;14.40;19.24
54806;BME280;62866;55.776;37.496;2023-04-16T10:48:47;101231.16;;;13.81;20.03
54806;BME280;62866;55.776;37.496;2023-04-16T10:51:24;101227.88;;;13.71;20.08
54806;BME280;62866;55.776;37.496;2023-04-16T10:56:33;101223.81;;;13.75;19.84
54806;BME280;62866;55.776;37.496;2023-04-16T10:58:59;101217.94;;;13.72;19.96
54806;BME280;62866;55.776;37.496;2023-04-16T11:01:30;101223.31;;;13.72;19.80
54806;BME280;62866;55.776;37.496;2023-04-16T11:04:24;101229.53;;;13.72;19.96
54806;BME280;62866;55.776;37.496;2023-04-16T11:10:03;101226.25;;;13.93;20.66
54806;BME280;62866;55.776;37.496;2023-04-16T11:12:36;101211.59;;;14.03;20.03
54806;BME280;62866;55.776;37.496;2023-04-16T11:15:03;101210.97;;;13.93;20.08
54806;BME280;62866;55.776;37.496;2023-04-16T11:17:47;101206.91;;;13.97;20.33
54806;BME280;62866;55.776;37.496;2023-04-16T11:20:17;101196.53;;;13.86;20.18
54806;BME280;62866;55.776;37.496;2023-04-16T11:22:43;101201.78;;;13.80;20.28
54806;BME280;62866;55.776;37.496;2023-04-16T11:25:11;101206.31;;;13.79;20.31
54806;BME280;62866;55.776;37.496;2023-04-16T11:27:37;101189.88;;;13.74;20.24
54806;BME280;62866;55.776;37.496;2023-04-16T11:30:04;101199.50;;;13.60;20.46
54806;BME280;62866;55.776;37.496;2023-04-16T11:32:35;101189.78;;;13.51;20.82
54806;BME280;62866;55.776;37.496;2023-04-16T11:35:23;101181.91;;;13.50;20.71
54806;BME280;62866;55.776;37.496;2023-04-16T11:37:48;101182.41;;;13.53;20.85
54806;BME280;62866;55.776;37.496;2023-04-16T11:40:13;101180.44;;;13.47;20.95
54806;BME280;62866;55.776;37.496;2023-04-16T11:42:40;101178.25;;;13.43;20.67
54806;BME280;62866;55.776;37.496;2023-04-16T11:45:10;101179.06;;;13.51;20.83
54806;BME280;62866;55.776;37.496;2023-04-16T11:50:20;101172.13;;;13.57;20.85
54806;BME280;62866;55.776;37.496;2023-04-16T11:52:47;101165.53;;;13.67;20.44
54806;BME280;62866;55.776;37.496;2023-04-16T11:55:13;101162.06;;;13.59;20.70
54806;BME280;62866;55.776;37.496;2023-04-16T11:57:38;101158.94;;;13.47;20.40
54806;BME280;62866;55.776;37.496;2023-04-16T12:00:04;101163.94;;;13.50;20.68
54806;BME280;62866;55.776;37.496;2023-04-16T12:02:35;101167.97;;;13.54;20.92
54806;BME280;62866;55.776;37.496;2023-04-16T12:05:05;101162.09;;;13.51;20.74
54806;BME280;62866;55.776;37.496;2023-04-16T12:07:41;101151.22;;;13.44;20.76
54806;BME280;62866;55.776;37.496;2023-04-16T12:10:08;101148.53;;;13.44;21.07
54806;BME280;62866;55.776;37.496;2023-04-16T12:12:33;101144.09;;;13.59;20.81
54806;BME280;62866;55.776;37.496;2023-04-16T12:15:01;101142.38;;;13.66;20.72
54806;BME280;62866;55.776;37.496;2023-04-16T12:17:28;101144.72;;;13.70;20.75
54806;BME280;62866;55.776;37.496;2023-04-16T12:19:59;101140.59;;;13.82;20.95
54806;BME280;62866;55.776;37.496;2023-04-16T12:22:32;101133.38;;;13.82;20.62
54806;BME280;62866;55.776;37.496;2023-04-16T12:25:11;101127.53;;;13.79;20.51
54806;BME280;62866;55.776;37.496;2023-04-16T12:27:46;101119.00;;;13.67;20.42
54806;BME280;62866;55.776;37.496;2023-04-16T12:30:14;101127.78;;;13.61;20.58
54806;BME280;62866;55.776;37.496;2023-04-16T12:32:41;101133.16;;;13.61;21.10
54806;BME280;62866;55.776;37.496;2023-04-16T12:35:09;101121.03;;;13.65;20.86
54806;BME280;62866;55.776;37.496;2023-04-16T12:37:34;101115.16;;;13.70;21.38
54806;BME280;62866;55.776;37.496;2023-04-16T12:40:01;101114.97;;;13.71;21.23
54806;BME280;62866;55.776;37.496;2023-04-16T12:42:26;101107.53;;;13.73;21.34
54806;BME280;62866;55.776;37.496;2023-04-16T12:44:57;101117.28;;;13.74;21.13
54806;BME280;62866;55.776;37.496;2023-04-16T12:47:23;101103.84;;;13.74;20.75
54806;BME280;62866;55.776;37.496;2023-04-16T12:49:48;101107.53;;;13.73;20.73
54806;BME280;62866;55.776;37.496;2023-04-16T12:52:14;101091.47;;;13.65;20.76
54806;BME280;62866;55.776;37.496;2023-04-16T12:54:39;101097.97;;;13.79;21.18
54806;BME280;62866;55.776;37.496;2023-04-16T12:57:05;101092.03;;;13.83;21.24
54806;BME280;62866;55.776;37.496;2023-04-16T12:59:30;101092.16;;;13.90;21.00
54806;BME280;62866;55.776;37.496;2023-04-16T13:01:56;101081.28;;;13.83;21.13